createdAt,value
2022-10-19T12:13:22.698Z,18.81
2022-10-19T12:14:22.668Z,18.90
2022-10-19T12:15:22.649Z,18.84
2022-10-19T12:16:22.644Z,18.54
2022-10-19T12:17:22.617Z,18.20
2022-10-19T12:19:35.623Z,17.92
2022-10-19T12:20:35.603Z,18.17
2022-10-19T12:21:35.585Z,18.26
2022-10-19T12:22:35.579Z,18.80
2022-10-19T12:23:35.541Z,18.87
2022-10-19T12:24:35.538Z,19.41
2022-10-19T12:25:35.508Z,19.65
2022-10-19T12:26:35.491Z,19.78
2022-10-19T12:27:35.723Z,19.95
2022-10-19T12:28:35.589Z,19.63
2022-10-19T12:29:35.452Z,19.91
2022-10-19T12:30:35.424Z,20.11
2022-10-19T12:31:35.416Z,20.05
2022-10-19T12:32:35.393Z,20.11
2022-10-19T12:33:35.400Z,20.08
2022-10-19T12:34:35.372Z,19.84
2022-10-19T12:35:35.353Z,20.13
2022-10-19T12:36:35.343Z,20.31
2022-10-19T12:37:35.579Z,20.24
2022-10-19T12:38:35.308Z,20.32
2022-10-19T12:39:35.280Z,20.29
2022-10-19T12:40:35.266Z,20.59
2022-10-19T12:41:35.248Z,20.58
2022-10-19T12:42:35.244Z,20.70
2022-10-19T12:43:35.242Z,20.74
2022-10-19T12:44:35.212Z,20.91
2022-10-19T12:45:35.198Z,20.82
2022-10-19T12:46:35.181Z,20.35
2022-10-19T12:47:35.426Z,20.31
2022-10-19T12:48:35.164Z,20.42
2022-10-19T12:49:35.133Z,20.20
2022-10-19T12:50:37.775Z,20.69
2022-10-19T12:51:35.096Z,21.06
2022-10-19T12:52:35.330Z,21.49
2022-10-19T12:53:35.087Z,21.12
2022-10-19T12:54:35.049Z,21.10
2022-10-19T12:55:35.078Z,21.29
2022-10-19T12:56:35.022Z,21.58
2022-10-19T12:57:35.370Z,21.98
2022-10-19T12:58:35.000Z,21.59
2022-10-19T12:59:34.983Z,21.31
2022-10-19T13:00:35.048Z,21.67
2022-10-19T13:01:34.944Z,21.99
2022-10-19T13:02:34.942Z,22.27
2022-10-19T13:03:34.934Z,22.70
2022-10-19T13:04:34.911Z,22.27
2022-10-19T13:05:34.893Z,22.02
2022-10-19T13:06:34.877Z,21.83
2022-10-19T13:07:35.225Z,21.94
2022-10-19T13:08:34.899Z,21.77
2022-10-19T13:09:34.823Z,21.88
2022-10-19T13:10:34.820Z,22.20
2022-10-19T13:12:35.082Z,21.96
2022-10-19T13:13:34.773Z,22.42
2022-10-19T13:14:34.762Z,22.18
2022-10-19T13:15:34.735Z,22.03
2022-10-19T13:16:34.721Z,22.24
2022-10-19T13:17:34.918Z,22.02
2022-10-19T13:18:34.693Z,22.09
2022-10-19T13:19:34.698Z,21.92
2022-10-19T13:20:34.706Z,21.77
2022-10-19T13:21:34.659Z,21.83
2022-10-19T13:22:34.801Z,21.83
2022-10-19T13:23:34.620Z,21.54
2022-10-19T13:24:34.719Z,21.67
2022-10-19T13:25:34.592Z,21.52
2022-10-19T13:26:34.582Z,21.35
2022-10-19T13:27:35.032Z,21.25
2022-10-19T13:28:34.559Z,20.95
2022-10-19T13:29:34.595Z,20.76
2022-10-19T13:30:34.531Z,20.76
2022-10-19T13:31:34.517Z,20.59
2022-10-19T13:32:34.760Z,20.64
2022-10-19T13:33:34.508Z,20.58
2022-10-19T13:34:34.484Z,20.47
2022-10-19T13:35:34.473Z,20.58
2022-10-19T13:36:34.437Z,20.38
2022-10-19T13:37:34.901Z,20.41
2022-10-19T13:39:34.400Z,20.33
2022-10-19T13:40:34.405Z,20.28
2022-10-19T13:41:34.363Z,20.31
2022-10-19T13:42:34.677Z,20.42
2022-10-19T13:43:34.347Z,20.54
2022-10-19T13:44:34.320Z,20.69
2022-10-19T13:45:34.315Z,20.57
2022-10-19T13:46:34.314Z,20.55
2022-10-19T13:47:34.683Z,20.55
2022-10-19T13:48:34.276Z,20.55
2022-10-19T13:49:34.416Z,20.28
2022-10-19T13:50:34.234Z,20.01
2022-10-19T13:51:34.234Z,19.98
2022-10-19T13:52:34.464Z,20.13
2022-10-19T13:53:34.201Z,20.11
2022-10-19T13:54:34.225Z,20.05
2022-10-19T13:55:34.314Z,19.83
2022-10-19T13:56:34.284Z,19.71
2022-10-19T13:57:34.460Z,19.66
2022-10-19T13:58:34.195Z,19.58
2022-10-19T13:59:34.107Z,19.55
2022-10-19T14:00:34.102Z,19.41
2022-10-19T14:01:34.126Z,19.28
2022-10-19T14:02:34.414Z,19.33
2022-10-19T14:03:34.058Z,19.39
